sensor_id;sensor_type;location;lat;lon;timestamp;pressure;altitude;pressure_sealevel;temperature;humidity
37856;BME280;23694;43.274;26.924;2023-04-15T00:01:44;98231.19;;;13.18;67.45
37856;BME280;23694;43.274;26.924;2023-04-15T00:04:10;98235.47;;;13.29;66.68
37856;BME280;23694;43.274;26.924;2023-04-15T00:06:36;98230.75;;;13.32;66.92
37856;BME280;23694;43.274;26.924;2023-04-15T00:09:02;98224.94;;;13.29;67.32
37856;BME280;23694;43.274;26.924;2023-04-15T00:11:28;98225.78;;;13.39;66.87
37856;BME280;23694;43.274;26.924;2023-04-15T00:13:55;98229.63;;;13.45;66.88
37856;BME280;23694;43.274;26.924;2023-04-15T00:16:21;98238.78;;;13.50;66.81
37856;BME280;23694;43.274;26.924;2023-04-15T00:18:47;98237.81;;;13.42;67.28
37856;BME280;23694;43.274;26.924;2023-04-15T00:21:13;98243.47;;;13.47;67.34
37856;BME280;23694;43.274;26.924;2023-04-15T00:23:39;98244.16;;;13.49;67.34
37856;BME280;23694;43.274;26.924;2023-04-15T00:26:05;98246.13;;;13.47;68.29
37856;BME280;23694;43.274;26.924;2023-04-15T00:28:32;98244.72;;;13.43;68.78
37856;BME280;23694;43.274;26.924;2023-04-15T00:30:58;98260.38;;;13.44;69.62
37856;BME280;23694;43.274;26.924;2023-04-15T00:33:24;98272.00;;;13.42;70.33
37856;BME280;23694;43.274;26.924;2023-04-15T00:35:50;98272.97;;;13.41;71.54
37856;BME280;23694;43.274;26.924;2023-04-15T00:38:16;98273.81;;;13.31;73.08
37856;BME280;23694;43.274;26.924;2023-04-15T00:40:42;98276.66;;;13.09;75.99
37856;BME280;23694;43.274;26.924;2023-04-15T00:43:08;98286.13;;;12.81;79.37
37856;BME280;23694;43.274;26.924;2023-04-15T00:45:34;98294.41;;;12.67;79.29
37856;BME280;23694;43.274;26.924;2023-04-15T00:48:01;98295.78;;;12.61;80.25
37856;BME280;23694;43.274;26.924;2023-04-15T00:50:27;98282.38;;;12.74;80.81
37856;BME280;23694;43.274;26.924;2023-04-15T00:52:53;98275.31;;;12.65;81.96
37856;BME280;23694;43.274;26.924;2023-04-15T00:55:19;98282.09;;;12.67;82.66
37856;BME280;23694;43.274;26.924;2023-04-15T00:57:45;98280.81;;;12.52;82.88
37856;BME280;23694;43.274;26.924;2023-04-15T01:00:12;98280.25;;;12.49;83.83
37856;BME280;23694;43.274;26.924;2023-04-15T01:02:38;98269.13;;;12.35;83.41
37856;BME280;23694;43.274;26.924;2023-04-15T01:05:04;98265.22;;;12.30;84.31
37856;BME280;23694;43.274;26.924;2023-04-15T01:07:31;98244.63;;;12.35;85.01
37856;BME280;23694;43.274;26.924;2023-04-15T01:09:57;98224.56;;;12.24;87.36
37856;BME280;23694;43.274;26.924;2023-04-15T01:12:25;98249.81;;;12.16;88.82
37856;BME280;23694;43.274;26.924;2023-04-15T01:14:54;98245.75;;;12.02;91.10
37856;BME280;23694;43.274;26.924;2023-04-15T01:17:23;98242.19;;;11.82;89.03
37856;BME280;23694;43.274;26.924;2023-04-15T01:19:50;98252.41;;;10.57;97.01
37856;BME280;23694;43.274;26.924;2023-04-15T01:22:16;98251.22;;;10.50;99.63
37856;BME280;23694;43.274;26.924;2023-04-15T01:25:09;98249.44;;;10.28;100.00
37856;BME280;23694;43.274;26.924;2023-04-15T01:27:38;98262.91;;;10.46;100.00
37856;BME280;23694;43.274;26.924;2023-04-15T01:30:06;98262.41;;;10.63;100.00
37856;BME280;23694;43.274;26.924;2023-04-15T01:32:33;98262.72;;;10.14;100.00
37856;BME280;23694;43.274;26.924;2023-04-15T01:34:59;98259.44;;;10.57;100.00
37856;BME280;23694;43.274;26.924;2023-04-15T01:37:26;98249.78;;;10.68;100.00
37856;BME280;23694;43.274;26.924;2023-04-15T01:39:52;98246.25;;;10.90;100.00
37856;BME280;23694;43.274;26.924;2023-04-15T01:42:19;98233.81;;;11.03;100.00
37856;BME280;23694;43.274;26.924;2023-04-15T01:44:46;98232.28;;;11.12;100.00
37856;BME280;23694;43.274;26.924;2023-04-15T01:47:12;98244.13;;;11.27;98.90
37856;BME280;23694;43.274;26.924;2023-04-15T01:49:38;98252.28;;;11.02;98.23
37856;BME280;23694;43.274;26.924;2023-04-15T01:52:05;98245.59;;;10.77;100.00
37856;BME280;23694;43.274;26.924;2023-04-15T01:54:31;98242.00;;;10.78;99.28
37856;BME280;23694;43.274;26.924;2023-04-15T01:56:57;98238.56;;;10.77;100.00
37856;BME280;23694;43.274;26.924;2023-04-15T01:59:23;98241.00;;;10.90;100.00
37856;BME280;23694;43.274;26.924;2023-04-15T02:01:49;98249.25;;;10.86;100.00
37856;BME280;23694;43.274;26.924;2023-04-15T02:04:15;98241.75;;;10.81;99.96
37856;BME280;23694;43.274;26.924;2023-04-15T02:06:42;98237.59;;;10.78;99.51
37856;BME280;23694;43.274;26.924;2023-04-15T02:09:09;98230.69;;;10.77;99.79
37856;BME280;23694;43.274;26.924;2023-04-15T02:11:35;98230.22;;;10.72;100.00
37856;BME280;23694;43.274;26.924;2023-04-15T02:14:04;98223.44;;;10.70;100.00
37856;BME280;23694;43.274;26.924;2023-04-15T02:16:31;98230.50;;;10.58;100.00
37856;BME280;23694;43.274;26.924;2023-04-15T02:18:58;98242.66;;;10.59;100.00
37856;BME280;23694;43.274;26.924;2023-04-15T02:21:27;98270.00;;;10.66;100.00
37856;BME280;23694;43.274;26.924;2023-04-15T02:23:53;98266.31;;;10.69;100.00
37856;BME280;23694;43.274;26.924;2023-04-15T02:26:19;98254.59;;;10.84;100.00
37856;BME280;23694;43.274;26.924;2023-04-15T02:28:48;98257.59;;;10.79;100.00
37856;BME280;23694;43.274;26.924;2023-04-15T02:31:16;98252.63;;;10.65;100.00
37856;BME280;23694;43.274;26.924;2023-04-15T02:33:42;98241.19;;;10.77;100.00
37856;BME280;23694;43.274;26.924;2023-04-15T02:36:08;98246.34;;;11.00;100.00
37856;BME280;23694;43.274;26.924;2023-04-15T02:38:36;98243.34;;;11.16;100.00
37856;BME280;23694;43.274;26.924;2023-04-15T02:41:03;98228.84;;;11.32;100.00
37856;BME280;23694;43.274;26.924;2023-04-15T02:43:29;98232.28;;;11.33;100.00
37856;BME280;23694;43.274;26.924;2023-04-15T02:45:55;98234.59;;;11.47;100.00
37856;BME280;23694;43.274;26.924;2023-04-15T02:48:21;98238.69;;;11.61;100.00
37856;BME280;23694;43.274;26.924;2023-04-15T02:50:47;98244.97;;;11.69;100.00
37856;BME280;23694;43.274;26.924;2023-04-15T02:53:13;98238.66;;;11.72;100.00
37856;BME280;23694;43.274;26.924;2023-04-15T02:55:40;98229.69;;;11.74;100.00
37856;BME280;23694;43.274;26.924;2023-04-15T02:58:07;98236.16;;;11.70;100.00
37856;BME280;23694;43.274;26.924;2023-04-15T03:00:33;98232.03;;;11.57;100.00
37856;BME280;23694;43.274;26.924;2023-04-15T03:03:01;98221.50;;;11.47;100.00
37856;BME280;23694;43.274;26.924;2023-04-15T03:05:28;98232.22;;;11.23;100.00
37856;BME280;23694;43.274;26.924;2023-04-15T03:07:54;98228.84;;;11.00;100.00
37856;BME280;23694;43.274;26.924;2023-04-15T03:10:20;98217.66;;;10.98;100.00
37856;BME280;23694;43.274;26.924;2023-04-15T03:12:47;98208.69;;;11.01;100.00
37856;BME280;23694;43.274;26.924;2023-04-15T03:15:14;98212.78;;;10.94;100.00
37856;BME280;23694;43.274;26.924;2023-04-15T03:17:41;98215.56;;;10.81;100.00
37856;BME280;23694;43.274;26.924;2023-04-15T03:20:07;98211.78;;;10.74;100.00
37856;BME280;23694;43.274;26.924;2023-04-15T03:22:34;98217.47;;;10.79;100.00
37856;BME280;23694;43.274;26.924;2023-04-15T03:25:00;98218.34;;;10.68;100.00
37856;BME280;23694;43.274;26.924;2023-04-15T03:27:26;98217.69;;;10.87;100.00
37856;BME280;23694;43.274;26.924;2023-04-15T03:29:52;98215.06;;;10.87;100.00
37856;BME280;23694;43.274;26.924;2023-04-15T03:32:18;98217.34;;;10.80;100.00
37856;BME280;23694;43.274;26.924;2023-04-15T03:34:44;98208.38;;;10.51;100.00
37856;BME280;23694;43.274;26.924;2023-04-15T03:37:10;98207.41;;;10.18;100.00
37856;BME280;23694;43.274;26.924;2023-04-15T03:39:36;98221.59;;;10.27;100.00
37856;BME280;23694;43.274;26.924;2023-04-15T03:42:02;98210.53;;;10.24;100.00
37856;BME280;23694;43.274;26.924;2023-04-15T03:44:29;98208.16;;;10.21;100.00
37856;BME280;23694;43.274;26.924;2023-04-15T03:46:55;98215.03;;;10.10;100.00
37856;BME280;23694;43.274;26.924;2023-04-15T03:49:21;98219.78;;;9.83;100.00
37856;BME280;23694;43.274;26.924;2023-04-15T03:51:48;98231.94;;;9.95;100.00
37856;BME280;23694;43.274;26.924;2023-04-15T03:54:14;98233.72;;;10.17;100.00
37856;BME280;23694;43.274;26.924;2023-04-15T03:56:40;98233.00;;;10.37;100.00
37856;BME280;23694;43.274;26.924;2023-04-15T03:59:06;98231.59;;;10.44;100.00
37856;BME280;23694;43.274;26.924;2023-04-15T04:01:32;98228.41;;;10.41;100.00
37856;BME280;23694;43.274;26.924;2023-04-15T04:03:58;98220.75;;;10.38;100.00
37856;BME280;23694;43.274;26.924;2023-04-15T04:06:25;98219.09;;;10.48;100.00
37856;BME280;23694;43.274;26.924;2023-04-15T04:08:51;98231.22;;;10.60;100.00
37856;BME280;23694;43.274;26.924;2023-04-15T04:11:17;98229.28;;;10.73;100.00
37856;BME280;23694;43.274;26.924;2023-04-15T04:13:43;98210.84;;;10.64;100.00
37856;BME280;23694;43.274;26.924;2023-04-15T04:16:09;98210.38;;;10.59;100.00
37856;BME280;23694;43.274;26.924;2023-04-15T04:18:35;98206.94;;;10.36;100.00
37856;BME280;23694;43.274;26.924;2023-04-15T04:21:01;98198.53;;;10.21;100.00
37856;BME280;23694;43.274;26.924;2023-04-15T04:23:28;98192.44;;;9.98;100.00
37856;BME280;23694;43.274;26.924;2023-04-15T04:25:54;98209.44;;;9.93;100.00
37856;BME280;23694;43.274;26.924;2023-04-15T04:28:20;98192.81;;;9.94;100.00
37856;BME280;23694;43.274;26.924;2023-04-15T04:30:46;98216.59;;;10.02;100.00
37856;BME280;23694;43.274;26.924;2023-04-15T04:33:12;98219.56;;;10.20;100.00
37856;BME280;23694;43.274;26.924;2023-04-15T04:35:38;98231.56;;;10.00;100.00
37856;BME280;23694;43.274;26.924;2023-04-15T04:38:04;98236.94;;;10.09;100.00
37856;BME280;23694;43.274;26.924;2023-04-15T04:40:30;98238.72;;;9.98;100.00
37856;BME280;23694;43.274;26.924;2023-04-15T04:42:56;98242.75;;;9.91;100.00
37856;BME280;23694;43.274;26.924;2023-04-15T04:45:22;98219.56;;;9.97;100.00
37856;BME280;23694;43.274;26.924;2023-04-15T04:47:48;98209.09;;;9.86;100.00
37856;BME280;23694;43.274;26.924;2023-04-15T04:50:15;98193.75;;;10.04;100.00
37856;BME280;23694;43.274;26.924;2023-04-15T04:52:41;98210.16;;;10.17;100.00
37856;BME280;23694;43.274;26.924;2023-04-15T04:55:07;98191.84;;;10.28;100.00
37856;BME280;23694;43.274;26.924;2023-04-15T04:57:34;98210.66;;;10.33;100.00
37856;BME280;23694;43.274;26.924;2023-04-15T05:00:02;98229.44;;;10.50;100.00
37856;BME280;23694;43.274;26.924;2023-04-15T05:02:29;98231.56;;;10.67;100.00
37856;BME280;23694;43.274;26.924;2023-04-15T05:04:55;98239.16;;;10.70;100.00
37856;BME280;23694;43.274;26.924;2023-04-15T05:07:21;98235.72;;;10.69;100.00
37856;BME280;23694;43.274;26.924;2023-04-15T05:09:47;98241.78;;;10.70;100.00
37856;BME280;23694;43.274;26.924;2023-04-15T05:12:14;98247.50;;;10.64;100.00
37856;BME280;23694;43.274;26.924;2023-04-15T05:14:40;98254.06;;;10.69;100.00
37856;BME280;23694;43.274;26.924;2023-04-15T05:17:07;98265.47;;;10.79;100.00
37856;BME280;23694;43.274;26.924;2023-04-15T05:19:33;98267.59;;;10.86;100.00
37856;BME280;23694;43.274;26.924;2023-04-15T05:21:59;98280.91;;;10.94;100.00
37856;BME280;23694;43.274;26.924;2023-04-15T05:24:25;98284.34;;;11.05;100.00
37856;BME280;23694;43.274;26.924;2023-04-15T05:26:52;98276.38;;;10.96;100.00
37856;BME280;23694;43.274;26.924;2023-04-15T05:29:18;98252.38;;;10.68;100.00
37856;BME280;23694;43.274;26.924;2023-04-15T05:31:44;98243.44;;;10.71;100.00
37856;BME280;23694;43.274;26.924;2023-04-15T05:34:10;98243.25;;;10.52;100.00
37856;BME280;23694;43.274;26.924;2023-04-15T05:36:37;98249.22;;;10.42;100.00
37856;BME280;23694;43.274;26.924;2023-04-15T05:39:03;98242.19;;;10.43;100.00
37856;BME280;23694;43.274;26.924;2023-04-15T05:41:29;98240.16;;;10.58;100.00
37856;BME280;23694;43.274;26.924;2023-04-15T05:43:55;98222.50;;;10.71;100.00
37856;BME280;23694;43.274;26.924;2023-04-15T05:46:21;98219.97;;;10.80;100.00
37856;BME280;23694;43.274;26.924;2023-04-15T05:48:47;98228.53;;;10.83;100.00
37856;BME280;23694;43.274;26.924;2023-04-15T05:51:13;98249.22;;;10.97;100.00
37856;BME280;23694;43.274;26.924;2023-04-15T05:53:40;98274.53;;;11.19;100.00
37856;BME280;23694;43.274;26.924;2023-04-15T05:56:06;98274.00;;;11.36;100.00
37856;BME280;23694;43.274;26.924;2023-04-15T05:58:32;98271.00;;;11.40;100.00
37856;BME280;23694;43.274;26.924;2023-04-15T06:00:58;98281.94;;;11.46;100.00
37856;BME280;23694;43.274;26.924;2023-04-15T06:03:25;98285.03;;;11.19;100.00
37856;BME280;23694;43.274;26.924;2023-04-15T06:05:51;98289.09;;;11.43;100.00
37856;BME280;23694;43.274;26.924;2023-04-15T06:08:17;98281.81;;;11.68;100.00
37856;BME280;23694;43.274;26.924;2023-04-15T06:10:43;98292.19;;;11.81;100.00
37856;BME280;23694;43.274;26.924;2023-04-15T06:13:09;98294.09;;;11.99;100.00
37856;BME280;23694;43.274;26.924;2023-04-15T06:15:36;98289.28;;;12.04;100.00
37856;BME280;23694;43.274;26.924;2023-04-15T06:18:02;98294.41;;;11.85;100.00
37856;BME280;23694;43.274;26.924;2023-04-15T06:20:28;98295.75;;;11.48;100.00
37856;BME280;23694;43.274;26.924;2023-04-15T06:22:54;98302.94;;;11.66;100.00
37856;BME280;23694;43.274;26.924;2023-04-15T06:25:21;98304.94;;;11.74;100.00
37856;BME280;23694;43.274;26.924;2023-04-15T06:27:47;98327.94;;;12.02;100.00
37856;BME280;23694;43.274;26.924;2023-04-15T06:30:16;98332.09;;;11.52;100.00
37856;BME280;23694;43.274;26.924;2023-04-15T06:32:42;98339.41;;;11.37;100.00
37856;BME280;23694;43.274;26.924;2023-04-15T06:35:09;98342.56;;;11.52;100.00
37856;BME280;23694;43.274;26.924;2023-04-15T06:37:36;98338.94;;;11.64;100.00
37856;BME280;23694;43.274;26.924;2023-04-15T06:40:02;98342.28;;;11.78;100.00
37856;BME280;23694;43.274;26.924;2023-04-15T06:42:29;98343.38;;;11.96;100.00
37856;BME280;23694;43.274;26.924;2023-04-15T06:44:56;98335.13;;;12.00;100.00
37856;BME280;23694;43.274;26.924;2023-04-15T06:47:22;98334.91;;;12.13;100.00
37856;BME280;23694;43.274;26.924;2023-04-15T06:49:48;98329.66;;;12.13;100.00
37856;BME280;23694;43.274;26.924;2023-04-15T06:52:14;98326.00;;;12.25;100.00
37856;BME280;23694;43.274;26.924;2023-04-15T06:54:41;98327.28;;;12.31;100.00
37856;BME280;23694;43.274;26.924;2023-04-15T06:57:07;98335.00;;;11.81;100.00
37856;BME280;23694;43.274;26.924;2023-04-15T06:59:34;98342.28;;;12.19;100.00
37856;BME280;23694;43.274;26.924;2023-04-15T07:02:00;98339.13;;;12.46;100.00
37856;BME280;23694;43.274;26.924;2023-04-15T07:04:26;98340.44;;;12.61;100.00
37856;BME280;23694;43.274;26.924;2023-04-15T07:06:53;98354.00;;;12.66;100.00
37856;BME280;23694;43.274;26.924;2023-04-15T07:09:21;98348.34;;;12.71;100.00
37856;BME280;23694;43.274;26.924;2023-04-15T07:11:47;98340.66;;;12.49;100.00
37856;BME280;23694;43.274;26.924;2023-04-15T07:14:14;98344.41;;;12.56;100.00
37856;BME280;23694;43.274;26.924;2023-04-15T07:16:40;98345.03;;;12.69;100.00
37856;BME280;23694;43.274;26.924;2023-04-15T07:19:06;98347.50;;;12.70;100.00
37856;BME280;23694;43.274;26.924;2023-04-15T07:21:33;98363.59;;;12.77;100.00
37856;BME280;23694;43.274;26.924;2023-04-15T07:23:59;98348.81;;;12.86;100.00
37856;BME280;23694;43.274;26.924;2023-04-15T07:26:25;98362.75;;;12.77;100.00
37856;BME280;23694;43.274;26.924;2023-04-15T07:28:51;98362.19;;;12.73;100.00
37856;BME280;23694;43.274;26.924;2023-04-15T07:31:17;98371.91;;;12.82;100.00
37856;BME280;23694;43.274;26.924;2023-04-15T07:33:44;98367.03;;;12.78;100.00
37856;BME280;23694;43.274;26.924;2023-04-15T07:36:10;98370.38;;;12.80;100.00
37856;BME280;23694;43.274;26.924;2023-04-15T07:38:36;98379.09;;;12.80;100.00
37856;BME280;23694;43.274;26.924;2023-04-15T07:41:02;98387.69;;;12.92;100.00
37856;BME280;23694;43.274;26.924;2023-04-15T07:43:28;98385.44;;;13.08;100.00
37856;BME280;23694;43.274;26.924;2023-04-15T07:45:55;98379.16;;;13.30;100.00
37856;BME280;23694;43.274;26.924;2023-04-15T07:48:21;98386.50;;;13.36;99.37
37856;BME280;23694;43.274;26.924;2023-04-15T07:50:47;98390.94;;;13.36;100.00
37856;BME280;23694;43.274;26.924;2023-04-15T07:53:13;98397.78;;;13.67;99.50
37856;BME280;23694;43.274;26.924;2023-04-15T07:55:40;98394.31;;;13.95;96.39
37856;BME280;23694;43.274;26.924;2023-04-15T07:58:06;98400.81;;;14.01;94.96
37856;BME280;23694;43.274;26.924;2023-04-15T08:00:32;98404.28;;;13.92;95.56
37856;BME280;23694;43.274;26.924;2023-04-15T08:02:58;98404.28;;;13.82;96.74
37856;BME280;23694;43.274;26.924;2023-04-15T08:05:24;98399.00;;;13.63;97.56
37856;BME280;23694;43.274;26.924;2023-04-15T08:07:50;98404.25;;;13.53;98.73
37856;BME280;23694;43.274;26.924;2023-04-15T08:10:16;98412.28;;;13.52;99.23
37856;BME280;23694;43.274;26.924;2023-04-15T08:12:42;98407.00;;;13.52;95.65
37856;BME280;23694;43.274;26.924;2023-04-15T08:15:09;98408.13;;;13.49;95.97
37856;BME280;23694;43.274;26.924;2023-04-15T08:17:35;98407.28;;;13.58;95.25
37856;BME280;23694;43.274;26.924;2023-04-15T08:20:02;98395.56;;;13.72;94.24
37856;BME280;23694;43.274;26.924;2023-04-15T08:22:29;98402.78;;;13.80;91.40
37856;BME280;23694;43.274;26.924;2023-04-15T08:24:55;98404.72;;;13.87;90.51
37856;BME280;23694;43.274;26.924;2023-04-15T08:27:21;98419.91;;;13.55;94.12
37856;BME280;23694;43.274;26.924;2023-04-15T08:29:47;98417.22;;;13.36;94.55
37856;BME280;23694;43.274;26.924;2023-04-15T08:32:13;98425.94;;;13.36;91.86
37856;BME280;23694;43.274;26.924;2023-04-15T08:34:39;98434.28;;;13.41;91.85
37856;BME280;23694;43.274;26.924;2023-04-15T08:37:05;98421.56;;;13.56;89.39
37856;BME280;23694;43.274;26.924;2023-04-15T08:39:31;98433.72;;;13.47;91.31
37856;BME280;23694;43.274;26.924;2023-04-15T08:42:00;98444.19;;;13.97;90.13
37856;BME280;23694;43.274;26.924;2023-04-15T08:44:33;98442.53;;;13.96;86.48
37856;BME280;23694;43.274;26.924;2023-04-15T08:47:00;98422.72;;;13.82;86.09
37856;BME280;23694;43.274;26.924;2023-04-15T08:49:28;98440.03;;;14.14;86.79
37856;BME280;23694;43.274;26.924;2023-04-15T08:51:56;98431.00;;;14.65;83.70
37856;BME280;23694;43.274;26.924;2023-04-15T08:54:23;98427.03;;;14.98;79.76
37856;BME280;23694;43.274;26.924;2023-04-15T08:56:50;98426.22;;;15.25;79.68
37856;BME280;23694;43.274;26.924;2023-04-15T08:59:18;98432.44;;;15.51;78.73
37856;BME280;23694;43.274;26.924;2023-04-15T09:01:46;98428.44;;;15.47;76.15
37856;BME280;23694;43.274;26.924;2023-04-15T09:04:13;98432.50;;;15.41;75.50
37856;BME280;23694;43.274;26.924;2023-04-15T09:06:39;98437.00;;;15.86;73.80
37856;BME280;23694;43.274;26.924;2023-04-15T09:09:06;98436.00;;;16.05;74.54
37856;BME280;23694;43.274;26.924;2023-04-15T09:11:33;98431.78;;;16.12;74.55
37856;BME280;23694;43.274;26.924;2023-04-15T09:13:59;98426.88;;;16.17;73.70
37856;BME280;23694;43.274;26.924;2023-04-15T09:16:26;98436.09;;;15.95;74.28
37856;BME280;23694;43.274;26.924;2023-04-15T09:18:53;98427.41;;;15.67;74.81
37856;BME280;23694;43.274;26.924;2023-04-15T09:21:19;98413.28;;;15.94;75.49
37856;BME280;23694;43.274;26.924;2023-04-15T09:23:57;98412.59;;;16.28;75.26
37856;BME280;23694;43.274;26.924;2023-04-15T09:26:34;98414.66;;;15.63;74.66
37856;BME280;23694;43.274;26.924;2023-04-15T09:29:08;98413.38;;;15.84;76.66
37856;BME280;23694;43.274;26.924;2023-04-15T09:31:35;98416.75;;;14.95;76.84
37856;BME280;23694;43.274;26.924;2023-04-15T09:34:01;98416.44;;;15.07;77.50
37856;BME280;23694;43.274;26.924;2023-04-15T09:36:27;98420.25;;;15.22;78.65
37856;BME280;23694;43.274;26.924;2023-04-15T09:38:56;98419.00;;;15.44;77.43
37856;BME280;23694;43.274;26.924;2023-04-15T09:41:23;98418.88;;;15.46;77.00
37856;BME280;23694;43.274;26.924;2023-04-15T09:43:49;98416.38;;;15.44;76.12
37856;BME280;23694;43.274;26.924;2023-04-15T09:46:15;98422.88;;;15.50;75.74
37856;BME280;23694;43.274;26.924;2023-04-15T09:48:41;98411.19;;;15.62;74.90
37856;BME280;23694;43.274;26.924;2023-04-15T09:51:07;98415.84;;;15.13;76.24
37856;BME280;23694;43.274;26.924;2023-04-15T09:53:35;98414.34;;;15.66;75.18
37856;BME280;23694;43.274;26.924;2023-04-15T09:56:03;98417.66;;;16.03;74.17
37856;BME280;23694;43.274;26.924;2023-04-15T09:58:33;98419.72;;;16.27;72.20
37856;BME280;23694;43.274;26.924;2023-04-15T10:01:02;98414.13;;;15.49;74.56
37856;BME280;23694;43.274;26.924;2023-04-15T10:03:30;98417.91;;;15.74;73.97
37856;BME280;23694;43.274;26.924;2023-04-15T10:05:59;98409.38;;;15.63;74.98
37856;BME280;23694;43.274;26.924;2023-04-15T10:08:31;98411.25;;;15.88;73.71
37856;BME280;23694;43.274;26.924;2023-04-15T10:10:58;98408.81;;;16.12;73.34
37856;BME280;23694;43.274;26.924;2023-04-15T10:13:29;98406.66;;;15.72;73.50
37856;BME280;23694;43.274;26.924;2023-04-15T10:16:14;98404.69;;;15.92;72.84
37856;BME280;23694;43.274;26.924;2023-04-15T10:18:46;98403.19;;;15.90;72.10
37856;BME280;23694;43.274;26.924;2023-04-15T10:21:13;98404.16;;;16.06;70.26
37856;BME280;23694;43.274;26.924;2023-04-15T10:23:46;98393.97;;;16.29;71.57
37856;BME280;23694;43.274;26.924;2023-04-15T10:26:13;98390.81;;;16.77;68.96
37856;BME280;23694;43.274;26.924;2023-04-15T10:28:40;98396.28;;;17.10;68.38
37856;BME280;23694;43.274;26.924;2023-04-15T10:31:07;98403.34;;;17.01;66.99
37856;BME280;23694;43.274;26.924;2023-04-15T10:33:33;98397.47;;;16.64;65.39
37856;BME280;23694;43.274;26.924;2023-04-15T10:36:00;98388.00;;;16.79;66.94
37856;BME280;23694;43.274;26.924;2023-04-15T10:41:19;98396.00;;;16.87;68.73
37856;BME280;23694;43.274;26.924;2023-04-15T10:43:53;98392.31;;;16.80;67.04
37856;BME280;23694;43.274;26.924;2023-04-15T10:46:34;98389.72;;;16.88;66.24
37856;BME280;23694;43.274;26.924;2023-04-15T10:51:46;98389.84;;;17.13;65.26
37856;BME280;23694;43.274;26.924;2023-04-15T10:57:06;98390.50;;;17.65;64.29
37856;BME280;23694;43.274;26.924;2023-04-15T10:59:38;98401.94;;;17.65;61.83
37856;BME280;23694;43.274;26.924;2023-04-15T11:02:50;98396.53;;;16.91;64.63
37856;BME280;23694;43.274;26.924;2023-04-15T11:05:18;98395.84;;;16.89;63.85
37856;BME280;23694;43.274;26.924;2023-04-15T11:07:50;98402.25;;;17.12;62.03
37856;BME280;23694;43.274;26.924;2023-04-15T11:12:44;98401.53;;;16.50;62.43
37856;BME280;23694;43.274;26.924;2023-04-15T11:15:29;98398.38;;;16.46;62.34
37856;BME280;23694;43.274;26.924;2023-04-15T11:17:58;98397.50;;;16.90;61.40
37856;BME280;23694;43.274;26.924;2023-04-15T11:20:25;98396.03;;;17.37;59.18
37856;BME280;23694;43.274;26.924;2023-04-15T11:22:54;98403.88;;;17.55;56.86
37856;BME280;23694;43.274;26.924;2023-04-15T11:25:22;98399.28;;;17.15;52.25
37856;BME280;23694;43.274;26.924;2023-04-15T11:27:49;98406.19;;;17.08;51.81
37856;BME280;23694;43.274;26.924;2023-04-15T11:30:21;98406.00;;;17.01;55.83
37856;BME280;23694;43.274;26.924;2023-04-15T11:32:48;98406.16;;;17.42;54.30
37856;BME280;23694;43.274;26.924;2023-04-15T11:35:16;98405.66;;;17.47;53.23
37856;BME280;23694;43.274;26.924;2023-04-15T11:37:46;98408.28;;;17.81;55.41
37856;BME280;23694;43.274;26.924;2023-04-15T11:40:13;98400.97;;;17.66;57.06
37856;BME280;23694;43.274;26.924;2023-04-15T11:42:43;98412.09;;;17.78;57.11
37856;BME280;23694;43.274;26.924;2023-04-15T11:45:12;98408.97;;;17.49;58.65
37856;BME280;23694;43.274;26.924;2023-04-15T11:47:40;98407.94;;;17.67;57.27
37856;BME280;23694;43.274;26.924;2023-04-15T11:53:11;98405.16;;;18.18;54.50
37856;BME280;23694;43.274;26.924;2023-04-15T11:55:46;98404.66;;;17.90;54.06
37856;BME280;23694;43.274;26.924;2023-04-15T11:58:23;98393.38;;;17.80;55.49
37856;BME280;23694;43.274;26.924;2023-04-15T12:00:57;98397.19;;;17.93;54.22
37856;BME280;23694;43.274;26.924;2023-04-15T12:03:28;98396.78;;;17.56;54.84
37856;BME280;23694;43.274;26.924;2023-04-15T12:06:23;98404.59;;;17.65;54.93
37856;BME280;23694;43.274;26.924;2023-04-15T12:11:56;98398.38;;;18.40;52.75
37856;BME280;23694;43.274;26.924;2023-04-15T12:14:27;98401.47;;;18.76;50.64
37856;BME280;23694;43.274;26.924;2023-04-15T12:19:27;98396.44;;;19.52;46.99
37856;BME280;23694;43.274;26.924;2023-04-15T12:22:00;98399.69;;;19.62;48.15
37856;BME280;23694;43.274;26.924;2023-04-15T12:24:27;98389.13;;;19.54;49.44
37856;BME280;23694;43.274;26.924;2023-04-15T12:26:54;98393.81;;;19.36;49.33
37856;BME280;23694;43.274;26.924;2023-04-15T12:29:27;98401.00;;;19.27;49.16
37856;BME280;23694;43.274;26.924;2023-04-15T12:31:58;98388.25;;;18.67;50.84
37856;BME280;23694;43.274;26.924;2023-04-15T12:34:30;98406.97;;;18.58;50.39
37856;BME280;23694;43.274;26.924;2023-04-15T12:36:58;98386.09;;;18.47;49.87
37856;BME280;23694;43.274;26.924;2023-04-15T12:39:26;98388.22;;;18.59;49.55
37856;BME280;23694;43.274;26.924;2023-04-15T12:41:52;98389.06;;;18.68;49.65
37856;BME280;23694;43.274;26.924;2023-04-15T12:44:18;98393.19;;;18.79;50.92
37856;BME280;23694;43.274;26.924;2023-04-15T12:46:44;98383.72;;;18.92;47.25
37856;BME280;23694;43.274;26.924;2023-04-15T12:49:11;98393.38;;;18.45;48.73
37856;BME280;23694;43.274;26.924;2023-04-15T12:51:39;98397.84;;;17.87;48.99
37856;BME280;23694;43.274;26.924;2023-04-15T12:54:05;98380.94;;;17.72;49.99
37856;BME280;23694;43.274;26.924;2023-04-15T12:56:31;98383.13;;;18.33;49.12
37856;BME280;23694;43.274;26.924;2023-04-15T12:58:57;98385.06;;;18.80;47.19
37856;BME280;23694;43.274;26.924;2023-04-15T13:01:24;98390.50;;;18.95;45.87
37856;BME280;23694;43.274;26.924;2023-04-15T13:03:50;98387.94;;;19.18;45.94
37856;BME280;23694;43.274;26.924;2023-04-15T13:06:16;98374.13;;;19.22;44.79